Time;durP1;ratioP1;P1;durP2;ratioP2;P2;SDS_P1;SDS_P2;PMS_P1;PMS_P2;Temp;Humidity;BMP_temperature;BMP_pressure;BME280_temperature;BME280_humidity;BME280_pressure;Samples;Min_cycle;Max_cycle;Signal;HPM_P1;HPM_P2
2023/07/15 00:01:30;;;;;;;3.95;2.80;;;19.30;99.90;;;;;;5027802;28;20048;-79
2023/07/15 00:03:57;;;;;;;4.18;3.38;;;19.30;99.90;;;;;;5021304;28;20038;-79
2023/07/15 00:06:24;;;;;;;10.40;3.28;;;19.30;99.90;;;;;;5026891;28;20056;-79
2023/07/15 00:08:50;;;;;;;7.22;3.40;;;19.30;99.90;;;;;;5028145;28;20042;-80
2023/07/15 00:11:32;;;;;;;4.78;2.83;;;19.30;99.90;;;;;;5020704;28;20481;-79
2023/07/15 00:14:00;;;;;;;6.15;2.83;;;19.30;99.90;;;;;;5028298;28;20144;-79
2023/07/15 00:16:27;;;;;;;3.80;2.90;;;19.30;99.90;;;;;;5018456;28;20531;-79
2023/07/15 00:18:53;;;;;;;8.02;3.55;;;19.30;99.90;;;;;;5029081;28;20464;-80
2023/07/15 00:21:22;;;;;;;3.05;2.60;;;19.30;99.90;;;;;;5021399;28;20124;-80
2023/07/15 00:23:55;;;;;;;6.35;3.17;;;19.30;99.90;;;;;;5026233;28;20046;-79
2023/07/15 00:26:22;;;;;;;4.38;2.70;;;19.40;99.90;;;;;;5012473;28;20477;-80
2023/07/15 00:28:49;;;;;;;6.35;3.10;;;19.40;99.90;;;;;;5027129;28;20455;-80
2023/07/15 00:31:17;;;;;;;6.95;2.97;;;19.40;99.90;;;;;;5026727;28;20050;-79
2023/07/15 00:33:44;;;;;;;4.68;3.25;;;19.40;99.90;;;;;;5010694;28;20042;-79
2023/07/15 00:36:12;;;;;;;5.57;3.25;;;19.40;99.90;;;;;;5028357;28;20134;-80
2023/07/15 00:38:38;;;;;;;5.72;3.55;;;19.90;99.90;;;;;;5028730;28;20397;-79
2023/07/15 00:41:11;;;;;;;4.60;2.78;;;19.40;99.90;;;;;;5026152;28;20171;-79
2023/07/15 00:43:56;;;;;;;5.68;2.83;;;19.40;99.90;;;;;;5020234;28;20053;-79
2023/07/15 00:46:22;;;;;;;11.05;3.22;;;19.40;99.90;;;;;;5026620;28;20575;-79
2023/07/15 00:48:51;;;;;;;3.90;2.60;;;19.40;99.90;;;;;;5027719;28;20124;-79
2023/07/15 00:51:17;;;;;;;3.83;3.13;;;19.40;99.90;;;;;;5034840;28;20042;-78
2023/07/15 00:53:43;;;;;;;2.95;2.58;;;19.40;99.90;;;;;;5027439;28;20517;-79
2023/07/15 00:56:09;;;;;;;4.00;2.85;;;19.40;99.90;;;;;;5027056;28;20049;-79
2023/07/15 00:58:35;;;;;;;6.72;2.85;;;19.40;99.90;;;;;;5011876;28;20126;-79
2023/07/15 01:01:01;;;;;;;3.42;2.83;;;19.40;99.90;;;;;;5026084;28;20808;-80
2023/07/15 01:03:27;;;;;;;5.53;3.38;;;19.40;99.90;;;;;;5026801;28;20033;-79
2023/07/15 01:05:52;;;;;;;6.97;3.08;;;19.40;99.90;;;;;;5026333;28;20413;-79
2023/07/15 01:08:18;;;;;;;6.47;2.65;;;19.40;99.90;;;;;;5027824;28;20040;-79
2023/07/15 01:10:44;;;;;;;5.90;2.65;;;19.40;99.90;;;;;;5025751;28;20037;-79
2023/07/15 01:13:09;;;;;;;5.43;2.40;;;19.40;99.90;;;;;;5011837;28;20397;-79
2023/07/15 01:15:35;;;;;;;5.55;2.50;;;19.40;99.90;;;;;;5031294;28;20045;-79
2023/07/15 01:18:01;;;;;;;5.93;3.20;;;19.40;99.90;;;;;;5031002;28;20220;-79
2023/07/15 01:20:26;;;;;;;3.17;2.38;;;19.40;99.90;;;;;;5030513;28;20099;-80
2023/07/15 01:22:52;;;;;;;4.00;2.90;;;19.40;99.90;;;;;;4996781;28;20061;-79
2023/07/15 01:25:17;;;;;;;3.88;2.13;;;19.40;99.90;;;;;;5028973;28;20080;-79
2023/07/15 01:27:43;;;;;;;4.22;2.40;;;19.40;99.90;;;;;;5030852;28;20172;-79
2023/07/15 01:30:09;;;;;;;5.10;2.45;;;19.30;99.90;;;;;;5035799;28;20071;-79
2023/07/15 01:32:35;;;;;;;3.05;2.50;;;19.40;99.90;;;;;;5038752;28;20455;-80
2023/07/15 01:35:03;;;;;;;4.90;2.60;;;19.50;99.90;;;;;;5029381;28;20045;-80
2023/07/15 01:37:29;;;;;;;5.70;2.17;;;19.50;99.90;;;;;;5031111;28;20053;-79
2023/07/15 01:39:56;;;;;;;7.28;2.83;;;19.50;99.90;;;;;;5028861;28;20045;-79
2023/07/15 01:42:22;;;;;;;7.00;2.30;;;19.50;99.90;;;;;;5028268;28;20056;-80
2023/07/15 01:44:47;;;;;;;3.05;1.80;;;19.50;99.90;;;;;;5030596;28;20501;-79
2023/07/15 01:47:13;;;;;;;4.22;2.45;;;19.50;99.90;;;;;;5030265;28;20486;-80
2023/07/15 01:49:39;;;;;;;3.20;2.30;;;19.50;99.90;;;;;;5028930;28;20049;-79
2023/07/15 01:52:06;;;;;;;2.55;2.17;;;19.50;99.90;;;;;;5045061;28;20543;-79
2023/07/15 01:54:32;;;;;;;4.72;2.05;;;19.50;99.90;;;;;;5028850;28;20148;-79
2023/07/15 01:56:57;;;;;;;4.70;1.85;;;19.60;99.90;;;;;;5030185;28;20084;-80
2023/07/15 01:59:23;;;;;;;7.80;2.25;;;19.50;99.90;;;;;;5028376;28;20087;-80
2023/07/15 02:01:49;;;;;;;3.20;2.20;;;19.60;99.90;;;;;;5027726;28;20041;-80
2023/07/15 02:04:15;;;;;;;4.82;1.83;;;19.60;99.90;;;;;;5025963;28;20048;-80
2023/07/15 02:06:41;;;;;;;2.70;1.88;;;19.60;99.90;;;;;;5030445;28;20042;-80
2023/07/15 02:09:07;;;;;;;2.33;1.83;;;19.60;99.90;;;;;;5030482;28;20037;-80
2023/07/15 02:11:34;;;;;;;3.17;1.98;;;19.70;99.90;;;;;;5026635;28;20041;-79
2023/07/15 02:14:00;;;;;;;6.07;2.30;;;19.70;99.90;;;;;;5023838;28;20096;-79
2023/07/15 02:16:27;;;;;;;3.92;2.17;;;19.70;99.90;;;;;;5028081;28;20089;-79
2023/07/15 02:18:52;;;;;;;2.42;1.67;;;19.70;99.90;;;;;;5029336;28;20045;-80
2023/07/15 02:21:19;;;;;;;3.42;1.70;;;19.70;99.90;;;;;;5028046;28;20041;-80
2023/07/15 02:23:45;;;;;;;4.13;1.50;;;19.80;99.90;;;;;;5021625;28;20055;-80
2023/07/15 02:26:11;;;;;;;5.53;1.92;;;19.80;99.90;;;;;;5018008;28;20045;-80
2023/07/15 02:28:37;;;;;;;3.65;1.85;;;19.80;99.90;;;;;;5021660;28;20052;-80
2023/07/15 02:31:04;;;;;;;6.63;1.85;;;19.80;99.90;;;;;;5017881;28;20033;-80
2023/07/15 02:33:30;;;;;;;4.68;2.03;;;19.80;99.90;;;;;;5021094;28;20044;-80
2023/07/15 02:35:55;;;;;;;4.95;2.00;;;19.80;99.90;;;;;;5018236;28;20041;-80
2023/07/15 02:38:21;;;;;;;2.03;1.73;;;19.80;99.90;;;;;;5009924;28;20025;-79
2023/07/15 02:40:49;;;;;;;3.85;2.03;;;19.80;99.90;;;;;;5016100;28;20067;-79
2023/07/15 02:43:15;;;;;;;4.35;2.13;;;19.80;99.90;;;;;;5026809;28;20042;-80
2023/07/15 02:45:41;;;;;;;4.05;1.95;;;19.70;99.90;;;;;;5022234;28;20030;-80
2023/07/15 02:48:06;;;;;;;3.60;1.63;;;19.70;99.90;;;;;;5016463;28;20076;-80
2023/07/15 02:50:32;;;;;;;5.57;1.88;;;19.70;99.90;;;;;;5002159;28;20068;-80
2023/07/15 02:52:58;;;;;;;4.07;1.80;;;19.70;99.90;;;;;;5017323;28;20402;-80
2023/07/15 02:55:25;;;;;;;3.55;1.73;;;19.70;99.90;;;;;;5022117;28;20048;-80
2023/07/15 02:57:50;;;;;;;3.80;1.60;;;19.70;99.90;;;;;;5018284;28;20042;-80
2023/07/15 03:00:16;;;;;;;3.33;1.77;;;19.70;99.90;;;;;;5019043;28;20490;-79
2023/07/15 03:02:47;;;;;;;4.35;1.80;;;19.70;99.90;;;;;;5018360;28;20485;-79
2023/07/15 03:05:13;;;;;;;2.35;1.55;;;19.70;99.90;;;;;;4997113;28;20038;-79
2023/07/15 03:07:44;;;;;;;6.47;1.83;;;19.70;99.90;;;;;;5008431;28;20048;-80
2023/07/15 03:10:14;;;;;;;5.65;2.15;;;19.70;99.90;;;;;;5018533;28;20049;-80
2023/07/15 03:12:44;;;;;;;4.82;2.08;;;19.60;99.90;;;;;;5012399;28;20037;-80
2023/07/15 03:15:10;;;;;;;2.40;1.60;;;19.60;99.90;;;;;;5024624;28;20072;-79
2023/07/15 03:17:36;;;;;;;5.63;1.88;;;19.60;99.90;;;;;;5013834;28;20351;-80
2023/07/15 03:20:19;;;;;;;4.10;2.08;;;19.70;99.90;;;;;;5001800;28;20486;-80
2023/07/15 03:22:45;;;;;;;3.75;1.88;;;19.60;99.90;;;;;;5007114;28;20164;-79
2023/07/15 03:25:11;;;;;;;6.78;1.88;;;19.60;99.90;;;;;;5027649;28;20409;-80
2023/07/15 03:27:37;;;;;;;4.53;1.83;;;19.60;99.90;;;;;;5028737;28;20056;-80
2023/07/15 03:30:05;;;;;;;3.80;1.83;;;19.60;99.90;;;;;;5027739;28;20053;-80
2023/07/15 03:32:31;;;;;;;5.40;1.80;;;19.60;99.90;;;;;;5009596;28;20087;-79
2023/07/15 03:34:56;;;;;;;6.60;1.80;;;19.50;99.90;;;;;;5027768;28;20037;-79
2023/07/15 03:37:22;;;;;;;3.80;1.35;;;19.60;99.90;;;;;;5012567;28;20166;-80
2023/07/15 03:39:47;;;;;;;3.65;1.70;;;19.50;99.90;;;;;;5027499;28;20033;-80
2023/07/15 03:42:13;;;;;;;3.45;1.77;;;19.40;99.90;;;;;;5026170;28;20441;-80
2023/07/15 03:44:39;;;;;;;4.53;2.15;;;19.40;99.90;;;;;;5027823;28;20069;-80
2023/07/15 03:47:04;;;;;;;6.13;1.67;;;19.40;99.90;;;;;;5029986;28;20184;-79
2023/07/15 03:49:30;;;;;;;4.05;1.95;;;19.40;99.90;;;;;;5014737;28;20392;-79
2023/07/15 03:51:58;;;;;;;2.72;1.80;;;19.40;99.90;;;;;;5036368;28;20548;-80
2023/07/15 03:54:23;;;;;;;5.03;1.95;;;19.30;99.90;;;;;;5020549;28;20452;-78
2023/07/15 03:56:49;;;;;;;2.95;1.60;;;19.30;99.90;;;;;;4999214;28;20038;-78
2023/07/15 03:59:14;;;;;;;1.70;1.60;;;19.30;99.90;;;;;;5004164;28;20049;-78
2023/07/15 04:01:40;;;;;;;2.28;1.85;;;19.30;99.90;;;;;;5022081;28;20042;-78
2023/07/15 04:04:08;;;;;;;5.10;1.95;;;19.20;99.90;;;;;;5022205;28;20049;-78
2023/07/15 04:06:37;;;;;;;1.50;1.40;;;19.20;99.90;;;;;;5020139;28;20490;-78
2023/07/15 04:09:06;;;;;;;5.18;2.00;;;19.30;99.90;;;;;;5007325;28;20056;-79
2023/07/15 04:11:32;;;;;;;4.15;1.60;;;19.20;99.90;;;;;;5027489;28;20255;-79
2023/07/15 04:13:59;;;;;;;8.20;2.00;;;19.20;99.90;;;;;;5007615;28;20079;-80
2023/07/15 04:16:24;;;;;;;3.35;1.50;;;19.60;99.90;;;;;;5031631;28;20064;-80
2023/07/15 04:18:50;;;;;;;4.63;1.55;;;19.20;99.90;;;;;;5013335;28;20497;-80
2023/07/15 04:21:16;;;;;;;7.47;1.92;;;19.10;99.90;;;;;;5026057;28;20042;-78
2023/07/15 04:23:41;;;;;;;2.63;1.88;;;19.30;99.90;;;;;;5024101;28;20049;-78
2023/07/15 04:26:07;;;;;;;3.55;2.05;;;19.10;99.90;;;;;;5023502;28;20579;-78
2023/07/15 04:28:33;;;;;;;6.05;2.08;;;19.10;99.90;;;;;;5026740;28;20152;-78
2023/07/15 04:30:59;;;;;;;4.13;1.80;;;19.10;99.90;;;;;;5010016;28;20107;-78
2023/07/15 04:33:25;;;;;;;2.75;1.83;;;19.10;99.90;;;;;;5028694;28;20120;-78
2023/07/15 04:35:50;;;;;;;6.40;2.17;;;19.10;99.90;;;;;;5009682;28;20045;-78
2023/07/15 04:38:16;;;;;;;4.00;1.90;;;19.10;99.90;;;;;;5009704;28;20045;-78
2023/07/15 04:40:42;;;;;;;4.07;1.77;;;19.10;99.90;;;;;;5023844;28;20150;-78
2023/07/15 04:43:07;;;;;;;2.85;1.85;;;19.10;99.90;;;;;;5022083;28;20044;-78
2023/07/15 04:45:33;;;;;;;4.10;2.05;;;19.10;99.90;;;;;;5018057;28;20052;-78
2023/07/15 04:47:59;;;;;;;3.88;1.80;;;19.10;99.90;;;;;;5036014;28;20052;-79
2023/07/15 04:50:25;;;;;;;6.30;1.92;;;19.20;99.90;;;;;;5036848;28;20041;-79
2023/07/15 04:52:50;;;;;;;3.75;2.00;;;19.20;99.90;;;;;;5031608;28;20058;-78
2023/07/15 04:55:16;;;;;;;4.28;2.40;;;19.20;99.90;;;;;;5030037;28;20056;-79
2023/07/15 04:57:42;;;;;;;5.32;1.70;;;19.20;99.90;;;;;;5030209;28;20125;-79
2023/07/15 05:00:11;;;;;;;5.60;1.75;;;19.30;99.90;;;;;;5029610;28;20081;-79
2023/07/15 05:02:40;;;;;;;3.00;1.55;;;19.30;99.90;;;;;;5030579;28;20049;-79
2023/07/15 05:05:06;;;;;;;2.88;1.67;;;19.30;99.90;;;;;;5025672;28;20072;-78
2023/07/15 05:07:33;;;;;;;4.22;2.25;;;19.30;99.90;;;;;;5028270;28;20072;-78
2023/07/15 05:09:59;;;;;;;6.20;1.85;;;19.30;99.90;;;;;;5025223;28;20053;-78
2023/07/15 05:12:28;;;;;;;3.45;1.92;;;19.30;99.90;;;;;;5031410;28;20516;-78
2023/07/15 05:14:54;;;;;;;3.92;2.00;;;19.30;99.90;;;;;;5029429;28;20053;-79
2023/07/15 05:17:20;;;;;;;3.45;1.70;;;19.30;99.90;;;;;;5031616;28;20034;-78
2023/07/15 05:19:46;;;;;;;3.88;2.08;;;19.30;99.90;;;;;;5024859;28;20037;-79
2023/07/15 05:22:12;;;;;;;4.35;2.47;;;19.30;99.90;;;;;;5031439;28;20041;-78
2023/07/15 05:24:38;;;;;;;3.58;2.08;;;19.30;99.90;;;;;;5032062;28;20115;-78
2023/07/15 05:27:04;;;;;;;5.68;1.90;;;19.30;99.90;;;;;;5014201;28;20164;-78
2023/07/15 05:29:30;;;;;;;4.78;1.80;;;19.40;99.90;;;;;;5031568;28;20474;-78
2023/07/15 05:31:56;;;;;;;2.38;1.98;;;19.40;99.90;;;;;;5022577;28;20037;-78
2023/07/15 05:34:21;;;;;;;7.53;2.05;;;19.50;99.90;;;;;;5031494;28;20362;-78
2023/07/15 05:36:47;;;;;;;6.53;2.15;;;19.50;99.90;;;;;;5013978;28;20099;-78
2023/07/15 05:39:14;;;;;;;6.43;2.10;;;19.50;99.90;;;;;;5031959;28;20053;-79
2023/07/15 05:41:39;;;;;;;6.22;1.83;;;19.60;99.90;;;;;;5031950;28;20045;-79
2023/07/15 05:44:06;;;;;;;7.40;2.40;;;19.60;99.90;;;;;;5036051;28;20053;-78
2023/07/15 05:46:32;;;;;;;5.95;2.65;;;19.60;99.90;;;;;;5027695;28;20456;-79
2023/07/15 05:48:58;;;;;;;3.75;1.83;;;19.60;99.90;;;;;;5031928;28;20049;-79
2023/07/15 05:51:25;;;;;;;5.75;2.00;;;19.70;99.90;;;;;;5030379;28;20060;-79
2023/07/15 05:53:50;;;;;;;2.75;2.00;;;19.70;99.90;;;;;;5031421;28;20057;-79
2023/07/15 05:56:16;;;;;;;3.80;2.40;;;20.10;99.90;;;;;;5031592;28;20108;-79
2023/07/15 05:58:42;;;;;;;3.70;1.88;;;20.00;99.90;;;;;;5030272;28;20042;-79
2023/07/15 06:01:07;;;;;;;7.47;3.85;;;19.90;99.90;;;;;;5032390;28;20049;-79
2023/07/15 06:03:33;;;;;;;11.32;7.47;;;20.00;99.90;;;;;;5032056;28;20053;-79
2023/07/15 06:06:02;;;;;;;2.60;2.33;;;20.00;99.90;;;;;;5014095;28;20037;-80
2023/07/15 06:08:28;;;;;;;4.43;1.85;;;20.00;99.90;;;;;;5031659;28;20076;-79
2023/07/15 06:10:54;;;;;;;4.00;1.90;;;20.10;99.90;;;;;;5031982;28;20049;-79
2023/07/15 06:13:20;;;;;;;4.68;2.28;;;20.20;99.90;;;;;;5010121;28;20049;-79
2023/07/15 06:15:52;;;;;;;4.60;1.85;;;20.30;99.90;;;;;;5032026;28;20074;-79
2023/07/15 06:18:18;;;;;;;5.93;2.05;;;20.30;99.90;;;;;;5031051;28;20077;-79
2023/07/15 06:20:46;;;;;;;3.10;2.20;;;20.40;99.90;;;;;;5032871;28;20043;-78
2023/07/15 06:23:13;;;;;;;2.90;1.70;;;20.40;99.90;;;;;;5034812;28;20448;-78
2023/07/15 06:25:38;;;;;;;4.45;2.40;;;20.50;99.90;;;;;;5036580;28;20076;-79
2023/07/15 06:28:05;;;;;;;12.77;2.85;;;20.50;99.90;;;;;;5006062;28;20045;-78
2023/07/15 06:30:31;;;;;;;7.18;1.98;;;20.40;99.90;;;;;;5019371;28;20407;-78
2023/07/15 06:32:57;;;;;;;3.65;1.85;;;21.20;99.90;;;;;;5020602;28;20409;-79
2023/07/15 06:35:23;;;;;;;4.13;2.15;;;20.50;99.90;;;;;;5007552;28;20477;-79
2023/07/15 06:37:50;;;;;;;5.45;2.10;;;20.50;99.90;;;;;;5003787;28;20548;-78
2023/07/15 06:40:17;;;;;;;14.52;8.98;;;20.50;99.90;;;;;;5028369;28;20037;-78
2023/07/15 06:42:44;;;;;;;5.53;2.42;;;20.60;99.90;;;;;;5010946;28;20044;-78
2023/07/15 06:45:10;;;;;;;3.30;2.10;;;20.60;99.90;;;;;;5012075;28;20358;-78
2023/07/15 06:47:36;;;;;;;5.13;2.30;;;20.70;99.90;;;;;;5028804;28;20116;-78
2023/07/15 06:50:02;;;;;;;5.55;2.20;;;20.70;99.90;;;;;;5029517;28;20515;-79
2023/07/15 06:52:27;;;;;;;6.18;2.67;;;20.80;99.90;;;;;;5030248;28;20037;-87
2023/07/15 06:54:53;;;;;;;6.05;1.92;;;20.90;99.90;;;;;;5021699;28;20379;-86
2023/07/15 06:57:19;;;;;;;10.25;2.10;;;21.00;99.90;;;;;;5027058;28;20071;-84
2023/07/15 06:59:47;;;;;;;6.15;2.20;;;21.00;99.90;;;;;;5030631;28;20046;-87
2023/07/15 07:02:13;;;;;;;7.90;1.70;;;20.90;99.90;;;;;;5007906;28;20049;-85
2023/07/15 07:04:38;;;;;;;3.55;1.70;;;21.00;99.90;;;;;;5013145;28;20045;-85
2023/07/15 07:07:04;;;;;;;6.90;2.55;;;21.10;99.90;;;;;;5022844;28;20698;-88
2023/07/15 07:09:29;;;;;;;4.85;1.90;;;21.40;99.90;;;;;;5020787;28;20124;-87
2023/07/15 07:11:55;;;;;;;4.40;1.85;;;21.20;99.90;;;;;;4991119;28;20125;-86
2023/07/15 07:14:21;;;;;;;3.60;1.88;;;21.30;99.90;;;;;;5025420;28;20051;-84
2023/07/15 07:16:46;;;;;;;4.45;2.00;;;21.40;99.90;;;;;;5028453;28;20038;-83
2023/07/15 07:19:13;;;;;;;4.13;1.70;;;21.70;99.90;;;;;;5013063;28;20052;-86
2023/07/15 07:21:39;;;;;;;3.88;1.80;;;21.60;99.90;;;;;;5033438;28;20064;-84
2023/07/15 07:24:05;;;;;;;7.30;1.92;;;21.70;99.90;;;;;;5027746;28;20136;-80
2023/07/15 07:26:31;;;;;;;9.05;2.75;;;21.70;99.90;;;;;;5020548;28;20053;-86
2023/07/15 07:28:57;;;;;;;4.63;1.98;;;21.70;99.90;;;;;;5007510;28;20037;-84
2023/07/15 07:31:22;;;;;;;7.15;2.17;;;21.70;99.90;;;;;;5023132;28;20034;-83
2023/07/15 07:33:49;;;;;;;5.32;2.05;;;21.70;99.90;;;;;;5006631;28;20034;-85
2023/07/15 07:36:15;;;;;;;24.50;3.35;;;21.60;99.90;;;;;;5024139;28;20111;-85
2023/07/15 07:38:43;;;;;;;3.30;2.22;;;21.60;99.90;;;;;;5022011;28;20049;-84
2023/07/15 07:41:16;;;;;;;4.90;2.20;;;21.70;99.90;;;;;;5008878;28;20060;-83
2023/07/15 07:43:42;;;;;;;6.10;2.50;;;21.70;99.90;;;;;;4314790;28;10021363;-83
2023/07/15 07:46:11;;;;;;;4.35;2.17;;;21.80;99.90;;;;;;5022481;28;20049;-83
2023/07/15 07:48:37;;;;;;;7.28;2.25;;;21.80;99.90;;;;;;5020545;28;20045;-83
2023/07/15 07:51:03;;;;;;;5.25;1.92;;;21.90;99.90;;;;;;5018871;28;20041;-83
2023/07/15 07:53:29;;;;;;;8.13;2.67;;;21.90;99.90;;;;;;5022930;28;20569;-83
2023/07/15 07:55:55;;;;;;;5.93;1.55;;;22.00;99.90;;;;;;5022366;28;20052;-83
2023/07/15 07:58:20;;;;;;;4.30;1.23;;;22.00;99.90;;;;;;5024937;28;20364;-81
2023/07/15 08:00:46;;;;;;;2.67;1.42;;;22.10;99.90;;;;;;5023795;28;20042;-82
2023/07/15 08:03:12;;;;;;;5.03;2.17;;;22.20;99.90;;;;;;5031076;28;20048;-81
2023/07/15 08:06:11;;;;;;;2.22;1.35;;;22.20;99.90;;;;;;5020704;28;20146;-84
2023/07/15 08:08:41;;;;;;;2.80;1.30;;;22.10;99.90;;;;;;5017468;28;20037;-83
2023/07/15 08:11:07;;;;;;;5.70;1.23;;;22.10;99.90;;;;;;5011851;28;20037;-85
2023/07/15 08:13:33;;;;;;;2.00;1.23;;;22.10;99.90;;;;;;5008254;28;20509;-83
2023/07/15 08:15:59;;;;;;;4.68;1.60;;;22.20;99.90;;;;;;5027203;28;20038;-83
2023/07/15 08:18:25;;;;;;;1.83;1.30;;;23.00;99.90;;;;;;5027461;28;20099;-83
2023/07/15 08:20:51;;;;;;;2.70;1.02;;;22.30;99.90;;;;;;5017495;28;20092;-82
2023/07/15 08:23:17;;;;;;;1.60;0.85;;;22.40;99.90;;;;;;5025717;28;20060;-84
2023/07/15 08:25:43;;;;;;;2.88;0.88;;;22.40;99.90;;;;;;5026695;28;20060;-84
2023/07/15 08:28:09;;;;;;;4.20;1.58;;;22.50;99.90;;;;;;5025097;28;20045;-85
2023/07/15 08:30:36;;;;;;;1.95;0.88;;;22.50;99.90;;;;;;5021792;28;20053;-82
2023/07/15 08:33:06;;;;;;;1.40;0.70;;;22.50;99.90;;;;;;5003467;28;20045;-84
2023/07/15 08:35:33;;;;;;;2.50;1.08;;;22.60;99.90;;;;;;5026845;28;20049;-83
2023/07/15 08:37:59;;;;;;;1.52;0.95;;;22.60;99.90;;;;;;4992170;28;20083;-84
2023/07/15 08:40:25;;;;;;;2.92;0.65;;;22.60;99.90;;;;;;4996551;28;20136;-82
2023/07/15 08:42:52;;;;;;;4.68;1.25;;;22.70;99.90;;;;;;5017956;28;20056;-83
2023/07/15 08:45:19;;;;;;;1.90;1.10;;;22.70;99.90;;;;;;5025956;28;20049;-83
2023/07/15 08:47:46;;;;;;;2.97;1.00;;;22.80;99.90;;;;;;4984976;28;20112;-85
2023/07/15 08:50:17;;;;;;;3.42;1.17;;;22.80;99.90;;;;;;5027359;28;20056;-82
2023/07/15 08:52:43;;;;;;;2.05;0.90;;;22.80;99.90;;;;;;5018059;28;20679;-82
2023/07/15 08:55:09;;;;;;;8.82;2.25;;;22.90;99.90;;;;;;5027113;28;20041;-83
2023/07/15 08:57:36;;;;;;;5.93;1.10;;;22.90;99.90;;;;;;5020226;28;20376;-81
2023/07/15 09:00:07;;;;;;;3.17;1.60;;;23.00;99.90;;;;;;5009454;28;20116;-81
2023/07/15 09:02:37;;;;;;;2.00;0.82;;;23.00;99.90;;;;;;5022276;28;20069;-81
2023/07/15 09:05:07;;;;;;;3.78;1.17;;;23.00;99.90;;;;;;5029946;28;20124;-81
2023/07/15 09:07:56;;;;;;;2.95;1.05;;;23.00;99.90;;;;;;5022660;28;20045;-81
2023/07/15 09:10:22;;;;;;;2.88;1.45;;;23.10;99.90;;;;;;5026715;28;20116;-81
2023/07/15 09:12:53;;;;;;;9.45;1.52;;;23.30;99.90;;;;;;5011720;28;20037;-81
2023/07/15 09:15:19;;;;;;;2.90;1.08;;;23.20;99.90;;;;;;5033235;28;20124;-81
2023/07/15 09:17:56;;;;;;;2.45;1.67;;;23.30;99.90;;;;;;5021800;28;20473;-80
2023/07/15 09:20:23;;;;;;;7.18;1.60;;;23.40;99.90;;;;;;5029313;28;20452;-80
2023/07/15 09:22:57;;;;;;;1.88;1.00;;;23.40;99.90;;;;;;5021817;28;20390;-80
2023/07/15 09:25:23;;;;;;;2.55;1.00;;;23.40;99.90;;;;;;5026690;28;20050;-80
2023/07/15 09:27:50;;;;;;;1.25;1.05;;;23.30;99.90;;;;;;5027948;28;20397;-81
2023/07/15 09:30:16;;;;;;;2.03;1.20;;;23.80;99.90;;;;;;5027328;28;20041;-81
2023/07/15 09:32:41;;;;;;;2.13;1.20;;;23.30;99.90;;;;;;5020353;28;20041;-80
2023/07/15 09:35:07;;;;;;;1.42;0.95;;;23.30;99.90;;;;;;5029497;28;20052;-80
2023/07/15 09:37:34;;;;;;;6.32;1.35;;;23.30;99.90;;;;;;5023796;28;20041;-80
2023/07/15 09:40:04;;;;;;;4.00;0.82;;;23.30;99.90;;;;;;5032374;28;20132;-83
2023/07/15 09:42:29;;;;;;;3.03;1.25;;;23.40;99.90;;;;;;5007032;28;20057;-81
2023/07/15 09:44:55;;;;;;;1.35;1.00;;;23.40;99.90;;;;;;5028882;28;20397;-84
2023/07/15 09:47:21;;;;;;;1.25;1.02;;;23.50;99.90;;;;;;5027639;28;20120;-79
2023/07/15 09:49:47;;;;;;;4.25;1.02;;;23.50;99.90;;;;;;5025287;28;20034;-81
2023/07/15 09:52:15;;;;;;;7.40;1.23;;;23.60;99.90;;;;;;5019007;28;20099;-80
2023/07/15 09:54:42;;;;;;;4.45;2.10;;;23.60;99.90;;;;;;5023840;28;20045;-83
2023/07/15 09:57:13;;;;;;;3.08;1.10;;;23.60;99.90;;;;;;5026887;28;20049;-79
2023/07/15 09:59:51;;;;;;;2.72;1.42;;;23.50;99.90;;;;;;5021790;28;20128;-83
2023/07/15 10:02:22;;;;;;;2.08;1.40;;;23.40;99.90;;;;;;5030263;28;20045;-82
2023/07/15 10:04:51;;;;;;;2.63;1.45;;;23.40;99.90;;;;;;5004836;28;20100;-82
2023/07/15 10:07:17;;;;;;;1.73;1.10;;;23.40;99.90;;;;;;5012016;28;20076;-82
2023/07/15 10:09:43;;;;;;;3.97;1.30;;;23.40;99.90;;;;;;5028647;28;20124;-87
2023/07/15 10:12:09;;;;;;;3.22;1.20;;;23.40;99.90;;;;;;5029414;28;20417;-83
2023/07/15 10:14:37;;;;;;;7.65;1.92;;;23.40;99.90;;;;;;5030396;28;20037;-82
2023/07/15 10:17:06;;;;;;;3.35;1.15;;;23.30;99.90;;;;;;5030737;28;20095;-81
2023/07/15 10:19:47;;;;;;;2.33;1.50;;;23.30;99.90;;;;;;5030312;28;20049;-81
2023/07/15 10:22:15;;;;;;;2.10;1.50;;;23.40;99.90;;;;;;5013190;28;20037;-81
2023/07/15 10:24:42;;;;;;;4.20;1.60;;;23.40;99.90;;;;;;5022514;28;20053;-81
2023/07/15 10:27:10;;;;;;;3.20;1.65;;;23.30;99.90;;;;;;5030173;28;20456;-82
2023/07/15 10:29:40;;;;;;;1.67;1.38;;;23.30;99.90;;;;;;5030361;28;20132;-82
2023/07/15 10:32:15;;;;;;;2.05;1.23;;;23.30;99.90;;;;;;5021800;28;20693;-82
2023/07/15 10:34:51;;;;;;;25.65;4.07;;;23.40;99.90;;;;;;4657868;28;10000270;-82
2023/07/15 10:37:18;;;;;;;7.80;1.95;;;23.50;99.90;;;;;;5028472;28;20564;-82
2023/07/15 10:39:45;;;;;;;2.88;1.50;;;23.60;99.90;;;;;;5020149;28;20042;-82
2023/07/15 10:42:13;;;;;;;3.00;1.30;;;23.70;99.90;;;;;;5029104;28;20033;-81
2023/07/15 10:44:44;;;;;;;2.83;1.63;;;23.80;99.90;;;;;;5029511;28;20072;-82
2023/07/15 10:47:14;;;;;;;6.47;1.70;;;24.00;99.90;;;;;;5028737;28;20045;-86
2023/07/15 10:49:40;;;;;;;14.90;3.05;;;24.00;99.90;;;;;;5026845;28;20049;-81
2023/07/15 10:52:06;;;;;;;2.28;1.60;;;24.10;99.90;;;;;;5018843;28;20406;-81
2023/07/15 10:54:37;;;;;;;12.02;2.83;;;24.20;99.90;;;;;;5019903;28;20103;-81
2023/07/15 10:57:11;;;;;;;2.33;1.58;;;24.50;99.90;;;;;;5022189;28;20041;-81
2023/07/15 10:59:41;;;;;;;2.42;1.40;;;24.20;99.90;;;;;;5019821;28;20551;-81
2023/07/15 11:02:07;;;;;;;31.85;6.35;;;24.20;99.90;;;;;;5018189;28;20046;-81
2023/07/15 11:04:36;;;;;;;43.20;6.55;;;24.10;99.90;;;;;;5019904;28;20045;-81
2023/07/15 11:07:06;;;;;;;5.88;1.85;;;24.10;99.90;;;;;;5021970;28;20132;-82
2023/07/15 11:09:36;;;;;;;1.67;1.33;;;24.20;99.90;;;;;;5019578;28;20081;-81
2023/07/15 11:12:10;;;;;;;5.32;1.33;;;24.20;99.90;;;;;;5018838;28;20081;-81
2023/07/15 11:14:40;;;;;;;3.55;2.05;;;24.30;99.90;;;;;;5025841;28;20046;-81
2023/07/15 11:17:07;;;;;;;6.55;1.98;;;24.40;99.90;;;;;;5030054;28;20056;-81
2023/07/15 11:19:32;;;;;;;4.18;1.73;;;24.50;99.90;;;;;;5022321;28;20045;-81
2023/07/15 11:21:59;;;;;;;6.22;1.65;;;24.60;99.90;;;;;;5017614;28;20045;-81
2023/07/15 11:24:28;;;;;;;3.72;1.27;;;24.60;99.90;;;;;;5017673;28;20045;-81
2023/07/15 11:26:54;;;;;;;3.20;1.50;;;24.80;99.90;;;;;;5000324;28;20038;-81
2023/07/15 11:29:21;;;;;;;1.63;1.10;;;24.90;99.90;;;;;;4999733;28;20030;-81
2023/07/15 11:31:49;;;;;;;1.35;0.85;;;25.10;99.90;;;;;;5020799;28;20115;-81
2023/07/15 11:34:23;;;;;;;4.00;0.90;;;25.20;99.90;;;;;;5021546;28;20046;-82
2023/07/15 11:36:51;;;;;;;4.00;1.13;;;25.20;99.90;;;;;;5000110;28;20054;-81
2023/07/15 11:39:17;;;;;;;2.17;1.13;;;25.20;99.90;;;;;;5017572;28;20394;-81
2023/07/15 11:41:44;;;;;;;2.65;1.38;;;25.00;99.90;;;;;;5019251;28;20064;-81
2023/07/15 11:44:15;;;;;;;2.42;1.40;;;25.00;99.90;;;;;;5020735;28;20390;-81
2023/07/15 11:46:43;;;;;;;4.30;1.88;;;25.00;99.90;;;;;;5019960;28;20041;-81
2023/07/15 11:49:10;;;;;;;4.28;1.50;;;25.10;99.90;;;;;;5017891;28;20050;-82
2023/07/15 11:51:40;;;;;;;3.33;1.38;;;25.00;99.90;;;;;;5018087;28;20052;-81
2023/07/15 11:54:12;;;;;;;3.53;1.38;;;25.00;99.90;;;;;;5021315;28;20670;-82
2023/07/15 11:56:47;;;;;;;3.42;1.15;;;24.90;99.90;;;;;;5019372;28;20057;-82
2023/07/15 11:59:34;;;;;;;3.60;1.30;;;24.90;99.90;;;;;;5016627;28;20053;-82
2023/07/15 12:02:03;;;;;;;4.10;1.48;;;24.90;99.90;;;;;;5022053;28;20697;-82
2023/07/15 12:04:29;;;;;;;1.13;0.93;;;24.90;99.90;;;;;;5020347;28;20080;-81
2023/07/15 12:06:55;;;;;;;1.50;1.05;;;24.90;99.90;;;;;;5003400;28;20038;-81
2023/07/15 12:09:22;;;;;;;2.15;0.93;;;25.00;99.90;;;;;;5023551;28;20049;-81
2023/07/15 12:11:51;;;;;;;2.75;0.70;;;25.00;99.90;;;;;;5018749;28;20053;-82
2023/07/15 12:14:17;;;;;;;4.30;1.20;;;25.00;99.90;;;;;;5020667;28;20048;-82
2023/07/15 12:16:44;;;;;;;9.93;1.00;;;25.10;99.90;;;;;;5001990;28;20049;-82
2023/07/15 12:19:12;;;;;;;3.35;1.40;;;25.30;99.90;;;;;;4999501;28;20595;-82
2023/07/15 12:21:38;;;;;;;4.65;1.13;;;25.40;99.90;;;;;;5018423;28;20053;-82
2023/07/15 12:24:04;;;;;;;1.83;1.10;;;25.50;99.90;;;;;;5008716;28;20374;-81
2023/07/15 12:26:30;;;;;;;0.80;0.80;;;25.50;99.90;;;;;;5016559;28;20049;-82
2023/07/15 12:28:57;;;;;;;4.60;0.90;;;25.50;99.90;;;;;;5020356;28;20037;-82
2023/07/15 12:31:22;;;;;;;1.92;0.90;;;25.60;99.90;;;;;;5020758;28;20095;-81
2023/07/15 12:33:48;;;;;;;4.63;0.70;;;25.60;99.90;;;;;;5019698;28;20049;-81
2023/07/15 12:36:15;;;;;;;1.75;0.80;;;25.60;99.90;;;;;;5017521;28;20042;-81
2023/07/15 12:38:42;;;;;;;3.22;0.90;;;25.60;99.90;;;;;;5020897;28;20049;-80
2023/07/15 12:41:08;;;;;;;2.05;0.60;;;25.60;99.90;;;;;;5021619;28;20042;-81
2023/07/15 12:43:35;;;;;;;3.20;1.40;;;24.60;99.90;;;;;;5020523;28;20080;-82
2023/07/15 12:46:02;;;;;;;4.63;1.90;;;25.40;99.90;;;;;;5024319;28;20037;-80